sensor_id;sensor_type;location;lat;lon;timestamp;temperature;humidity
27492;DHT22;14927;51.210;6.838;2023-04-25T10:30:25;15.60;40.80
27492;DHT22;14927;51.210;6.838;2023-04-25T10:33:17;15.60;41.50
27492;DHT22;14927;51.210;6.838;2023-04-25T10:36:10;15.60;40.30
27492;DHT22;14927;51.210;6.838;2023-04-25T10:39:05;15.70;39.80
27492;DHT22;14927;51.210;6.838;2023-04-25T10:41:56;15.70;40.00
27492;DHT22;14927;51.210;6.838;2023-04-25T10:45:06;15.70;40.20
27492;DHT22;14927;51.210;6.838;2023-04-25T10:47:51;15.70;39.10
27492;DHT22;14927;51.210;6.838;2023-04-25T10:50:39;15.70;39.90
27492;DHT22;14927;51.210;6.838;2023-04-25T10:53:24;15.70;39.10
27492;DHT22;14927;51.210;6.838;2023-04-25T10:56:20;15.80;39.60
27492;DHT22;14927;51.210;6.838;2023-04-25T10:59:08;15.80;38.60
27492;DHT22;14927;51.210;6.838;2023-04-25T11:01:54;15.90;39.00
27492;DHT22;14927;51.210;6.838;2023-04-25T11:04:40;15.90;39.00
27492;DHT22;14927;51.210;6.838;2023-04-25T11:07:48;16.00;38.70
27492;DHT22;14927;51.210;6.838;2023-04-25T11:10:35;16.10;37.40
27492;DHT22;14927;51.210;6.838;2023-04-25T11:13:21;16.10;39.50
27492;DHT22;14927;51.210;6.838;2023-04-25T11:16:09;16.20;38.90
27492;DHT22;14927;51.210;6.838;2023-04-25T11:18:57;16.20;38.00
27492;DHT22;14927;51.210;6.838;2023-04-25T11:21:42;16.30;37.90
27492;DHT22;14927;51.210;6.838;2023-04-25T11:24:31;16.30;38.00
27492;DHT22;14927;51.210;6.838;2023-04-25T11:27:19;16.40;37.50
27492;DHT22;14927;51.210;6.838;2023-04-25T11:30:14;16.50;37.50
27492;DHT22;14927;51.210;6.838;2023-04-25T11:33:00;16.60;36.50
27492;DHT22;14927;51.210;6.838;2023-04-25T11:35:46;16.60;36.60
27492;DHT22;14927;51.210;6.838;2023-04-25T11:38:31;16.70;36.40
27492;DHT22;14927;51.210;6.838;2023-04-25T11:41:16;16.80;36.50
27492;DHT22;14927;51.210;6.838;2023-04-25T11:44:01;16.90;36.50
27492;DHT22;14927;51.210;6.838;2023-04-25T11:46:47;17.00;36.50
27492;DHT22;14927;51.210;6.838;2023-04-25T11:49:32;17.20;36.60
27492;DHT22;14927;51.210;6.838;2023-04-25T11:52:17;17.30;36.40
27492;DHT22;14927;51.210;6.838;2023-04-25T11:55:04;17.40;36.40
27492;DHT22;14927;51.210;6.838;2023-04-25T11:57:51;17.50;36.10
27492;DHT22;14927;51.210;6.838;2023-04-25T12:00:36;17.60;36.00
27492;DHT22;14927;51.210;6.838;2023-04-25T12:03:21;17.80;36.20
27492;DHT22;14927;51.210;6.838;2023-04-25T12:06:09;17.90;36.00
27492;DHT22;14927;51.210;6.838;2023-04-25T12:09:03;18.10;35.90
27492;DHT22;14927;51.210;6.838;2023-04-25T12:11:52;18.20;35.10
27492;DHT22;14927;51.210;6.838;2023-04-25T12:14:38;18.40;35.20
27492;DHT22;14927;51.210;6.838;2023-04-25T12:17:23;18.50;35.00
27492;DHT22;14927;51.210;6.838;2023-04-25T12:20:10;18.70;34.60
27492;DHT22;14927;51.210;6.838;2023-04-25T12:22:57;18.80;34.00
27492;DHT22;14927;51.210;6.838;2023-04-25T12:25:43;18.80;34.70
27492;DHT22;14927;51.210;6.838;2023-04-25T12:28:32;18.90;35.00
27492;DHT22;14927;51.210;6.838;2023-04-25T12:31:17;18.80;35.00
27492;DHT22;14927;51.210;6.838;2023-04-25T12:34:02;18.80;35.50
27492;DHT22;14927;51.210;6.838;2023-04-25T12:36:48;18.80;35.90
27492;DHT22;14927;51.210;6.838;2023-04-25T12:39:33;18.70;36.10
27492;DHT22;14927;51.210;6.838;2023-04-25T12:42:18;18.50;37.00
27492;DHT22;14927;51.210;6.838;2023-04-25T12:45:03;18.60;38.50
27492;DHT22;14927;51.210;6.838;2023-04-25T12:47:48;18.40;39.50
27492;DHT22;14927;51.210;6.838;2023-04-25T12:50:33;18.40;40.20
27492;DHT22;14927;51.210;6.838;2023-04-25T12:53:19;18.30;41.40
27492;DHT22;14927;51.210;6.838;2023-04-25T12:56:04;18.30;41.80
27492;DHT22;14927;51.210;6.838;2023-04-25T12:58:50;18.20;42.10
27492;DHT22;14927;51.210;6.838;2023-04-25T13:01:34;18.30;42.20
27492;DHT22;14927;51.210;6.838;2023-04-25T13:04:19;18.40;42.90
27492;DHT22;14927;51.210;6.838;2023-04-25T13:07:05;18.50;42.50
27492;DHT22;14927;51.210;6.838;2023-04-25T13:09:50;18.70;41.60
27492;DHT22;14927;51.210;6.838;2023-04-25T13:12:34;18.90;41.10
27492;DHT22;14927;51.210;6.838;2023-04-25T13:15:19;19.10;39.20
27492;DHT22;14927;51.210;6.838;2023-04-25T13:18:04;19.40;38.10
27492;DHT22;14927;51.210;6.838;2023-04-25T13:20:56;19.50;37.40
27492;DHT22;14927;51.210;6.838;2023-04-25T13:23:40;19.70;36.50
27492;DHT22;14927;51.210;6.838;2023-04-25T13:26:26;19.80;35.90
27492;DHT22;14927;51.210;6.838;2023-04-25T13:29:11;19.80;35.20
27492;DHT22;14927;51.210;6.838;2023-04-25T13:31:56;19.80;34.80
27492;DHT22;14927;51.210;6.838;2023-04-25T13:34:41;19.80;34.50
27492;DHT22;14927;51.210;6.838;2023-04-25T13:37:25;19.70;34.10
27492;DHT22;14927;51.210;6.838;2023-04-25T13:40:11;19.60;34.20
27492;DHT22;14927;51.210;6.838;2023-04-25T13:42:56;19.50;34.20
27492;DHT22;14927;51.210;6.838;2023-04-25T13:45:40;19.40;34.10
27492;DHT22;14927;51.210;6.838;2023-04-25T13:48:25;19.40;34.80
27492;DHT22;14927;51.210;6.838;2023-04-25T13:51:10;19.40;34.80
27492;DHT22;14927;51.210;6.838;2023-04-25T13:53:55;19.30;34.70
27492;DHT22;14927;51.210;6.838;2023-04-25T13:56:41;19.40;34.70
27492;DHT22;14927;51.210;6.838;2023-04-25T13:59:27;19.30;33.90
27492;DHT22;14927;51.210;6.838;2023-04-25T14:02:12;19.30;33.00
27492;DHT22;14927;51.210;6.838;2023-04-25T14:04:56;19.20;32.40
27492;DHT22;14927;51.210;6.838;2023-04-25T14:07:41;19.20;32.40
27492;DHT22;14927;51.210;6.838;2023-04-25T14:10:26;19.10;32.40
27492;DHT22;14927;51.210;6.838;2023-04-25T14:13:10;19.20;32.40
27492;DHT22;14927;51.210;6.838;2023-04-25T14:15:55;19.20;32.50
27492;DHT22;14927;51.210;6.838;2023-04-25T14:18:40;19.30;32.70
27492;DHT22;14927;51.210;6.838;2023-04-25T14:21:24;19.40;32.50
27492;DHT22;14927;51.210;6.838;2023-04-25T14:24:10;19.50;32.70
27492;DHT22;14927;51.210;6.838;2023-04-25T14:26:57;19.60;32.50
27492;DHT22;14927;51.210;6.838;2023-04-25T14:29:42;19.80;33.10
27492;DHT22;14927;51.210;6.838;2023-04-25T14:32:27;19.80;33.50
27492;DHT22;14927;51.210;6.838;2023-04-25T14:35:12;20.00;33.50
27492;DHT22;14927;51.210;6.838;2023-04-25T14:37:57;20.00;33.20
27492;DHT22;14927;51.210;6.838;2023-04-25T14:40:41;20.00;33.10
27492;DHT22;14927;51.210;6.838;2023-04-25T14:43:26;20.00;32.60
27492;DHT22;14927;51.210;6.838;2023-04-25T14:46:11;19.90;32.10
27492;DHT22;14927;51.210;6.838;2023-04-25T14:48:56;19.80;31.80
27492;DHT22;14927;51.210;6.838;2023-04-25T14:51:40;19.80;31.90
27492;DHT22;14927;51.210;6.838;2023-04-25T14:54:25;19.70;32.10
27492;DHT22;14927;51.210;6.838;2023-04-25T14:57:09;19.60;32.30
27492;DHT22;14927;51.210;6.838;2023-04-25T14:59:54;19.50;32.50
27492;DHT22;14927;51.210;6.838;2023-04-25T15:02:39;19.50;32.90
27492;DHT22;14927;51.210;6.838;2023-04-25T15:05:24;19.50;33.30
27492;DHT22;14927;51.210;6.838;2023-04-25T15:08:08;19.60;33.90
27492;DHT22;14927;51.210;6.838;2023-04-25T15:10:56;19.80;33.80
27492;DHT22;14927;51.210;6.838;2023-04-25T15:13:41;19.90;32.80
27492;DHT22;14927;51.210;6.838;2023-04-25T15:16:26;20.00;32.20
27492;DHT22;14927;51.210;6.838;2023-04-25T15:19:11;20.00;31.50
27492;DHT22;14927;51.210;6.838;2023-04-25T15:21:55;20.00;30.80
27492;DHT22;14927;51.210;6.838;2023-04-25T15:24:40;19.90;30.40
27492;DHT22;14927;51.210;6.838;2023-04-25T15:27:26;19.80;30.40
27492;DHT22;14927;51.210;6.838;2023-04-25T15:30:12;19.70;30.30
27492;DHT22;14927;51.210;6.838;2023-04-25T15:33:00;19.60;30.40
27492;DHT22;14927;51.210;6.838;2023-04-25T15:35:45;19.50;30.20
27492;DHT22;14927;51.210;6.838;2023-04-25T15:38:29;19.40;30.00
27492;DHT22;14927;51.210;6.838;2023-04-25T15:41:17;19.30;30.10
27492;DHT22;14927;51.210;6.838;2023-04-25T15:44:02;19.20;30.80
27492;DHT22;14927;51.210;6.838;2023-04-25T15:46:47;19.10;31.30
27492;DHT22;14927;51.210;6.838;2023-04-25T15:49:31;19.00;32.00
27492;DHT22;14927;51.210;6.838;2023-04-25T15:52:16;19.00;32.10
27492;DHT22;14927;51.210;6.838;2023-04-25T15:55:05;19.00;32.10
27492;DHT22;14927;51.210;6.838;2023-04-25T15:57:50;19.00;32.10
27492;DHT22;14927;51.210;6.838;2023-04-25T16:00:35;19.00;32.10
27492;DHT22;14927;51.210;6.838;2023-04-25T16:03:21;19.10;32.10
27492;DHT22;14927;51.210;6.838;2023-04-25T16:06:05;19.30;32.20
27492;DHT22;14927;51.210;6.838;2023-04-25T16:08:51;19.30;32.30
27492;DHT22;14927;51.210;6.838;2023-04-25T16:11:36;19.50;32.10
27492;DHT22;14927;51.210;6.838;2023-04-25T16:14:20;19.70;31.30
27492;DHT22;14927;51.210;6.838;2023-04-25T16:17:05;19.70;30.50
27492;DHT22;14927;51.210;6.838;2023-04-25T16:19:50;19.70;30.00
27492;DHT22;14927;51.210;6.838;2023-04-25T16:22:36;19.70;30.70
27492;DHT22;14927;51.210;6.838;2023-04-25T16:25:21;19.60;30.40
27492;DHT22;14927;51.210;6.838;2023-04-25T16:28:07;19.60;30.80
27492;DHT22;14927;51.210;6.838;2023-04-25T16:30:51;19.50;31.00
27492;DHT22;14927;51.210;6.838;2023-04-25T16:33:36;19.40;31.00
27492;DHT22;14927;51.210;6.838;2023-04-25T16:36:22;19.30;31.20
27492;DHT22;14927;51.210;6.838;2023-04-25T16:39:16;19.20;31.20
27492;DHT22;14927;51.210;6.838;2023-04-25T16:42:01;19.10;30.90
27492;DHT22;14927;51.210;6.838;2023-04-25T16:44:46;19.00;30.60
27492;DHT22;14927;51.210;6.838;2023-04-25T16:47:31;18.90;30.40
27492;DHT22;14927;51.210;6.838;2023-04-25T16:50:17;18.80;30.50
27492;DHT22;14927;51.210;6.838;2023-04-25T16:53:02;18.60;30.90
27492;DHT22;14927;51.210;6.838;2023-04-25T16:55:47;18.50;31.20
27492;DHT22;14927;51.210;6.838;2023-04-25T16:58:32;18.30;31.00
27492;DHT22;14927;51.210;6.838;2023-04-25T17:01:20;18.40;31.10
27492;DHT22;14927;51.210;6.838;2023-04-25T17:04:05;18.30;31.10
27492;DHT22;14927;51.210;6.838;2023-04-25T17:06:50;18.30;31.20
27492;DHT22;14927;51.210;6.838;2023-04-25T17:09:38;18.30;31.30
27492;DHT22;14927;51.210;6.838;2023-04-25T17:12:23;18.20;31.40
27492;DHT22;14927;51.210;6.838;2023-04-25T17:15:10;18.20;31.40
27492;DHT22;14927;51.210;6.838;2023-04-25T17:17:55;18.20;31.40
27492;DHT22;14927;51.210;6.838;2023-04-25T17:20:40;18.10;31.40
27492;DHT22;14927;51.210;6.838;2023-04-25T17:23:34;18.10;31.40
27492;DHT22;14927;51.210;6.838;2023-04-25T17:26:19;18.30;31.60
27492;DHT22;14927;51.210;6.838;2023-04-25T17:29:06;18.10;31.60
27492;DHT22;14927;51.210;6.838;2023-04-25T17:31:51;18.00;31.60
27492;DHT22;14927;51.210;6.838;2023-04-25T17:34:36;18.00;31.60
27492;DHT22;14927;51.210;6.838;2023-04-25T17:37:23;18.00;31.80
27492;DHT22;14927;51.210;6.838;2023-04-25T17:40:11;18.00;31.80
27492;DHT22;14927;51.210;6.838;2023-04-25T17:42:56;17.90;32.00
27492;DHT22;14927;51.210;6.838;2023-04-25T17:45:42;17.90;32.00
27492;DHT22;14927;51.210;6.838;2023-04-25T17:48:26;17.80;31.80
27492;DHT22;14927;51.210;6.838;2023-04-25T17:51:11;17.70;31.90
27492;DHT22;14927;51.210;6.838;2023-04-25T17:53:56;17.60;31.90
27492;DHT22;14927;51.210;6.838;2023-04-25T17:56:41;17.60;31.90
27492;DHT22;14927;51.210;6.838;2023-04-25T17:59:27;17.50;32.20
27492;DHT22;14927;51.210;6.838;2023-04-25T18:02:11;17.40;32.30
27492;DHT22;14927;51.210;6.838;2023-04-25T18:04:56;17.30;32.30
27492;DHT22;14927;51.210;6.838;2023-04-25T18:07:41;17.30;32.40
27492;DHT22;14927;51.210;6.838;2023-04-25T18:10:29;17.20;32.80
27492;DHT22;14927;51.210;6.838;2023-04-25T18:13:14;17.10;33.10
27492;DHT22;14927;51.210;6.838;2023-04-25T18:15:58;17.10;33.10
27492;DHT22;14927;51.210;6.838;2023-04-25T18:18:43;17.00;33.30
27492;DHT22;14927;51.210;6.838;2023-04-25T18:21:29;17.00;33.40
27492;DHT22;14927;51.210;6.838;2023-04-25T18:24:16;16.90;33.50
27492;DHT22;14927;51.210;6.838;2023-04-25T18:27:01;16.80;33.60
27492;DHT22;14927;51.210;6.838;2023-04-25T18:29:48;16.80;33.80
27492;DHT22;14927;51.210;6.838;2023-04-25T18:32:33;16.70;33.70
27492;DHT22;14927;51.210;6.838;2023-04-25T18:35:18;16.70;33.80
27492;DHT22;14927;51.210;6.838;2023-04-25T18:38:03;16.60;33.80
27492;DHT22;14927;51.210;6.838;2023-04-25T18:40:48;16.50;33.80
27492;DHT22;14927;51.210;6.838;2023-04-25T18:43:33;16.50;33.70
27492;DHT22;14927;51.210;6.838;2023-04-25T18:46:17;16.40;33.50
27492;DHT22;14927;51.210;6.838;2023-04-25T18:49:05;16.40;33.60
27492;DHT22;14927;51.210;6.838;2023-04-25T18:51:50;16.30;33.70
27492;DHT22;14927;51.210;6.838;2023-04-25T18:54:35;16.20;33.90
27492;DHT22;14927;51.210;6.838;2023-04-25T18:57:20;16.20;34.20
27492;DHT22;14927;51.210;6.838;2023-04-25T19:00:05;16.10;34.50
27492;DHT22;14927;51.210;6.838;2023-04-25T19:02:54;16.10;34.80
27492;DHT22;14927;51.210;6.838;2023-04-25T19:05:40;16.00;35.20
27492;DHT22;14927;51.210;6.838;2023-04-25T19:08:25;15.90;35.60
27492;DHT22;14927;51.210;6.838;2023-04-25T19:11:10;15.80;35.90
27492;DHT22;14927;51.210;6.838;2023-04-25T19:13:59;15.60;36.20
27492;DHT22;14927;51.210;6.838;2023-04-25T19:16:45;15.70;36.60
27492;DHT22;14927;51.210;6.838;2023-04-25T19:19:30;15.60;36.80
27492;DHT22;14927;51.210;6.838;2023-04-25T19:22:17;15.60;37.10
27492;DHT22;14927;51.210;6.838;2023-04-25T19:25:05;15.60;37.40
27492;DHT22;14927;51.210;6.838;2023-04-25T19:27:51;15.50;37.50
27492;DHT22;14927;51.210;6.838;2023-04-25T19:30:37;15.50;37.90
27492;DHT22;14927;51.210;6.838;2023-04-25T19:33:22;15.40;38.00
27492;DHT22;14927;51.210;6.838;2023-04-25T19:36:07;15.30;38.80
27492;DHT22;14927;51.210;6.838;2023-04-25T19:38:52;15.30;38.10
27492;DHT22;14927;51.210;6.838;2023-04-25T19:41:40;15.30;38.20
27492;DHT22;14927;51.210;6.838;2023-04-25T19:44:25;15.20;38.20
27492;DHT22;14927;51.210;6.838;2023-04-25T19:47:11;15.20;38.30
27492;DHT22;14927;51.210;6.838;2023-04-25T19:49:56;15.10;38.30
27492;DHT22;14927;51.210;6.838;2023-04-25T19:52:41;15.10;38.20
27492;DHT22;14927;51.210;6.838;2023-04-25T19:55:25;15.00;38.20
27492;DHT22;14927;51.210;6.838;2023-04-25T19:58:11;15.00;38.20
27492;DHT22;14927;51.210;6.838;2023-04-25T20:00:59;14.90;38.10
27492;DHT22;14927;51.210;6.838;2023-04-25T20:03:44;14.80;38.20
27492;DHT22;14927;51.210;6.838;2023-04-25T20:06:31;14.80;38.30
27492;DHT22;14927;51.210;6.838;2023-04-25T20:09:17;14.80;38.50
27492;DHT22;14927;51.210;6.838;2023-04-25T20:12:04;14.70;38.60
27492;DHT22;14927;51.210;6.838;2023-04-25T20:14:49;14.70;38.80
27492;DHT22;14927;51.210;6.838;2023-04-25T20:17:34;14.60;38.90
27492;DHT22;14927;51.210;6.838;2023-04-25T20:20:19;14.60;39.10
27492;DHT22;14927;51.210;6.838;2023-04-25T20:23:07;14.50;39.20
27492;DHT22;14927;51.210;6.838;2023-04-25T20:25:53;14.50;39.30
27492;DHT22;14927;51.210;6.838;2023-04-25T20:28:38;14.40;39.40
27492;DHT22;14927;51.210;6.838;2023-04-25T20:31:24;14.40;39.60
27492;DHT22;14927;51.210;6.838;2023-04-25T20:34:09;14.40;39.80
27492;DHT22;14927;51.210;6.838;2023-04-25T20:36:54;14.30;39.90
27492;DHT22;14927;51.210;6.838;2023-04-25T20:39:39;14.30;40.10
27492;DHT22;14927;51.210;6.838;2023-04-25T20:42:24;14.20;40.20
27492;DHT22;14927;51.210;6.838;2023-04-25T20:45:09;14.20;40.30
27492;DHT22;14927;51.210;6.838;2023-04-25T20:47:58;14.10;40.30
27492;DHT22;14927;51.210;6.838;2023-04-25T20:50:42;14.10;40.50
27492;DHT22;14927;51.210;6.838;2023-04-25T20:53:27;14.00;40.60
27492;DHT22;14927;51.210;6.838;2023-04-25T20:56:12;14.00;40.80
27492;DHT22;14927;51.210;6.838;2023-04-25T20:59:05;14.00;41.00
27492;DHT22;14927;51.210;6.838;2023-04-25T21:01:52;13.90;41.10
27492;DHT22;14927;51.210;6.838;2023-04-25T21:04:45;13.90;41.60
27492;DHT22;14927;51.210;6.838;2023-04-25T21:07:30;13.80;41.90
27492;DHT22;14927;51.210;6.838;2023-04-25T21:10:16;13.70;42.00
27492;DHT22;14927;51.210;6.838;2023-04-25T21:13:01;13.80;42.40
27492;DHT22;14927;51.210;6.838;2023-04-25T21:15:46;13.50;42.50
27492;DHT22;14927;51.210;6.838;2023-04-25T21:18:31;13.40;42.60
27492;DHT22;14927;51.210;6.838;2023-04-25T21:21:17;13.40;42.80
27492;DHT22;14927;51.210;6.838;2023-04-25T21:24:02;13.30;43.20
27492;DHT22;14927;51.210;6.838;2023-04-25T21:26:47;13.20;43.40
27492;DHT22;14927;51.210;6.838;2023-04-25T21:29:31;13.20;43.50
27492;DHT22;14927;51.210;6.838;2023-04-25T21:32:16;13.10;43.80
27492;DHT22;14927;51.210;6.838;2023-04-25T21:35:03;13.10;44.10
27492;DHT22;14927;51.210;6.838;2023-04-25T21:37:50;13.00;44.30
27492;DHT22;14927;51.210;6.838;2023-04-25T21:40:36;12.90;44.40
27492;DHT22;14927;51.210;6.838;2023-04-25T21:43:23;12.90;44.60
27492;DHT22;14927;51.210;6.838;2023-04-25T21:46:08;12.90;44.60
27492;DHT22;14927;51.210;6.838;2023-04-25T21:48:53;12.80;44.60
27492;DHT22;14927;51.210;6.838;2023-04-25T21:51:37;12.80;44.70
27492;DHT22;14927;51.210;6.838;2023-04-25T21:54:22;12.70;44.80
27492;DHT22;14927;51.210;6.838;2023-04-25T21:57:07;12.70;44.90
27492;DHT22;14927;51.210;6.838;2023-04-25T21:59:51;12.60;44.90
27492;DHT22;14927;51.210;6.838;2023-04-25T22:02:36;12.70;45.00
27492;DHT22;14927;51.210;6.838;2023-04-25T22:05:21;12.60;45.10
27492;DHT22;14927;51.210;6.838;2023-04-25T22:08:09;12.60;45.20
27492;DHT22;14927;51.210;6.838;2023-04-25T22:10:54;12.60;45.30
27492;DHT22;14927;51.210;6.838;2023-04-25T22:13:45;12.50;45.50
27492;DHT22;14927;51.210;6.838;2023-04-25T22:16:30;12.50;45.60
27492;DHT22;14927;51.210;6.838;2023-04-25T22:19:15;12.40;45.60
27492;DHT22;14927;51.210;6.838;2023-04-25T22:22:00;12.40;45.70
27492;DHT22;14927;51.210;6.838;2023-04-25T22:24:45;12.30;45.80
27492;DHT22;14927;51.210;6.838;2023-04-25T22:27:31;12.30;46.10
27492;DHT22;14927;51.210;6.838;2023-04-25T22:30:17;12.30;46.30
27492;DHT22;14927;51.210;6.838;2023-04-25T22:33:02;12.30;46.30
27492;DHT22;14927;51.210;6.838;2023-04-25T22:35:47;12.20;46.40
27492;DHT22;14927;51.210;6.838;2023-04-25T22:38:31;12.10;46.50
27492;DHT22;14927;51.210;6.838;2023-04-25T22:41:16;12.10;46.70
27492;DHT22;14927;51.210;6.838;2023-04-25T22:44:01;12.00;46.90
27492;DHT22;14927;51.210;6.838;2023-04-25T22:46:45;12.00;47.10
27492;DHT22;14927;51.210;6.838;2023-04-25T22:49:31;11.90;47.30
27492;DHT22;14927;51.210;6.838;2023-04-25T22:52:15;11.80;47.50
27492;DHT22;14927;51.210;6.838;2023-04-25T22:55:00;11.80;47.70
27492;DHT22;14927;51.210;6.838;2023-04-25T22:57:48;11.80;48.00
27492;DHT22;14927;51.210;6.838;2023-04-25T23:00:33;11.70;48.10
27492;DHT22;14927;51.210;6.838;2023-04-25T23:03:18;11.70;48.30
27492;DHT22;14927;51.210;6.838;2023-04-25T23:06:02;11.60;48.50
27492;DHT22;14927;51.210;6.838;2023-04-25T23:08:47;11.60;48.60
27492;DHT22;14927;51.210;6.838;2023-04-25T23:11:31;11.50;48.70
27492;DHT22;14927;51.210;6.838;2023-04-25T23:14:17;11.50;48.80
27492;DHT22;14927;51.210;6.838;2023-04-25T23:17:01;11.40;48.90
27492;DHT22;14927;51.210;6.838;2023-04-25T23:19:46;11.40;49.10
27492;DHT22;14927;51.210;6.838;2023-04-25T23:22:32;11.40;49.20
27492;DHT22;14927;51.210;6.838;2023-04-25T23:25:17;11.30;49.30
27492;DHT22;14927;51.210;6.838;2023-04-25T23:28:02;11.30;49.30
27492;DHT22;14927;51.210;6.838;2023-04-25T23:30:46;11.20;49.40
27492;DHT22;14927;51.210;6.838;2023-04-25T23:33:31;11.20;49.60
27492;DHT22;14927;51.210;6.838;2023-04-25T23:36:17;11.10;49.70
27492;DHT22;14927;51.210;6.838;2023-04-25T23:39:04;11.10;49.80
27492;DHT22;14927;51.210;6.838;2023-04-25T23:41:52;11.00;49.90
27492;DHT22;14927;51.210;6.838;2023-04-25T23:44:37;11.00;50.00
27492;DHT22;14927;51.210;6.838;2023-04-25T23:47:22;10.90;50.20
27492;DHT22;14927;51.210;6.838;2023-04-25T23:50:07;10.80;50.30
27492;DHT22;14927;51.210;6.838;2023-04-25T23:52:51;10.80;50.50
27492;DHT22;14927;51.210;6.838;2023-04-25T23:55:36;10.70;50.60
27492;DHT22;14927;51.210;6.838;2023-04-25T23:58:21;10.70;50.70
